sensor_id;sensor_type;location;lat;lon;timestamp;pressure;altitude;pressure_sealevel;temperature;humidity
48810;BME280;40070;47.322;18.784;2022-08-07T00:01:35;1004.57;;;21.92;54.48
48810;BME280;40070;47.322;18.784;2022-08-07T00:03:38;1004.62;;;22.03;54.34
48810;BME280;40070;47.322;18.784;2022-08-07T00:05:40;1004.62;;;21.97;54.46
48810;BME280;40070;47.322;18.784;2022-08-07T00:07:43;1004.64;;;21.93;54.54
48810;BME280;40070;47.322;18.784;2022-08-07T00:09:45;1004.62;;;21.99;54.36
48810;BME280;40070;47.322;18.784;2022-08-07T00:11:48;1004.54;;;22.03;54.09
48810;BME280;40070;47.322;18.784;2022-08-07T00:13:50;1004.54;;;22.07;54.03
48810;BME280;40070;47.322;18.784;2022-08-07T00:15:52;1004.57;;;22.10;53.99
48810;BME280;40070;47.322;18.784;2022-08-07T00:17:55;1004.58;;;22.22;53.71
48810;BME280;40070;47.322;18.784;2022-08-07T00:19:57;1004.59;;;22.18;53.76
48810;BME280;40070;47.322;18.784;2022-08-07T00:22:00;1004.57;;;22.13;53.85
48810;BME280;40070;47.322;18.784;2022-08-07T00:24:03;1004.56;;;22.10;53.99
48810;BME280;40070;47.322;18.784;2022-08-07T00:26:06;1004.53;;;22.07;54.06
48810;BME280;40070;47.322;18.784;2022-08-07T00:28:09;1004.52;;;22.09;54.10
48810;BME280;40070;47.322;18.784;2022-08-07T00:30:12;1004.51;;;22.27;53.62
48810;BME280;40070;47.322;18.784;2022-08-07T00:32:14;1004.49;;;22.07;54.14
48810;BME280;40070;47.322;18.784;2022-08-07T00:34:17;1004.54;;;21.88;54.72
48810;BME280;40070;47.322;18.784;2022-08-07T00:36:19;1004.57;;;22.03;54.39
48810;BME280;40070;47.322;18.784;2022-08-07T00:38:22;1004.54;;;21.91;54.74
48810;BME280;40070;47.322;18.784;2022-08-07T00:40:25;1004.53;;;22.02;54.44
48810;BME280;40070;47.322;18.784;2022-08-07T00:42:28;1004.56;;;22.00;54.52
48810;BME280;40070;47.322;18.784;2022-08-07T00:44:38;1004.54;;;21.88;54.83
48810;BME280;40070;47.322;18.784;2022-08-07T00:46:40;1004.49;;;22.06;54.28
48810;BME280;40070;47.322;18.784;2022-08-07T00:48:43;1004.51;;;22.07;54.21
48810;BME280;40070;47.322;18.784;2022-08-07T00:50:45;1004.46;;;22.11;54.14
48810;BME280;40070;47.322;18.784;2022-08-07T00:52:48;1004.40;;;22.00;54.49
48810;BME280;40070;47.322;18.784;2022-08-07T00:54:50;1004.39;;;22.30;53.61
48810;BME280;40070;47.322;18.784;2022-08-07T00:56:53;1004.43;;;22.39;53.36
48810;BME280;40070;47.322;18.784;2022-08-07T00:58:55;1004.44;;;22.40;53.28
48810;BME280;40070;47.322;18.784;2022-08-07T01:00:58;1004.51;;;22.16;53.89
48810;BME280;40070;47.322;18.784;2022-08-07T01:03:01;1004.47;;;22.25;53.75
48810;BME280;40070;47.322;18.784;2022-08-07T01:05:03;1004.46;;;22.34;53.44
48810;BME280;40070;47.322;18.784;2022-08-07T01:07:06;1004.33;;;22.19;53.79
48810;BME280;40070;47.322;18.784;2022-08-07T01:09:09;1004.36;;;22.10;54.07
48810;BME280;40070;47.322;18.784;2022-08-07T01:11:12;1004.40;;;22.04;54.30
48810;BME280;40070;47.322;18.784;2022-08-07T01:13:14;1004.41;;;22.13;54.01
48810;BME280;40070;47.322;18.784;2022-08-07T01:15:17;1004.44;;;22.16;53.92
48810;BME280;40070;47.322;18.784;2022-08-07T01:17:20;1004.48;;;22.11;54.07
48810;BME280;40070;47.322;18.784;2022-08-07T01:19:22;1004.47;;;22.30;53.58
48810;BME280;40070;47.322;18.784;2022-08-07T01:21:25;1004.47;;;22.24;53.63
48810;BME280;40070;47.322;18.784;2022-08-07T01:23:28;1004.48;;;22.07;53.97
48810;BME280;40070;47.322;18.784;2022-08-07T01:25:31;1004.49;;;22.15;53.91
48810;BME280;40070;47.322;18.784;2022-08-07T01:27:34;1004.47;;;22.16;53.90
48810;BME280;40070;47.322;18.784;2022-08-07T01:29:37;1004.51;;;21.96;54.40
48810;BME280;40070;47.322;18.784;2022-08-07T01:31:40;1004.48;;;22.11;54.00
48810;BME280;40070;47.322;18.784;2022-08-07T01:33:42;1004.46;;;22.20;53.60
48810;BME280;40070;47.322;18.784;2022-08-07T01:35:45;1004.45;;;22.12;53.80
48810;BME280;40070;47.322;18.784;2022-08-07T01:37:57;1004.45;;;22.11;53.93
48810;BME280;40070;47.322;18.784;2022-08-07T01:40:00;1004.41;;;21.99;54.24
48810;BME280;40070;47.322;18.784;2022-08-07T01:42:02;1004.36;;;22.00;54.18
48810;BME280;40070;47.322;18.784;2022-08-07T01:44:05;1004.38;;;22.06;54.02
48810;BME280;40070;47.322;18.784;2022-08-07T01:46:07;1004.38;;;22.11;53.88
48810;BME280;40070;47.322;18.784;2022-08-07T01:48:10;1004.39;;;21.93;54.44
48810;BME280;40070;47.322;18.784;2022-08-07T01:50:12;1004.45;;;22.03;54.14
48810;BME280;40070;47.322;18.784;2022-08-07T01:52:15;1004.35;;;22.11;53.99
48810;BME280;40070;47.322;18.784;2022-08-07T01:54:18;1004.36;;;22.13;53.94
48810;BME280;40070;47.322;18.784;2022-08-07T01:56:33;1004.42;;;21.99;54.36
48810;BME280;40070;47.322;18.784;2022-08-07T01:58:41;1004.47;;;22.05;54.21
48810;BME280;40070;47.322;18.784;2022-08-07T02:00:53;1004.46;;;22.14;53.96
48810;BME280;40070;47.322;18.784;2022-08-07T02:03:00;1004.47;;;21.87;54.72
48810;BME280;40070;47.322;18.784;2022-08-07T02:05:05;1004.44;;;21.96;54.44
48810;BME280;40070;47.322;18.784;2022-08-07T02:07:08;1004.47;;;21.94;54.45
48810;BME280;40070;47.322;18.784;2022-08-07T02:09:13;1004.50;;;22.02;54.14
48810;BME280;40070;47.322;18.784;2022-08-07T02:11:16;1004.54;;;21.86;54.48
48810;BME280;40070;47.322;18.784;2022-08-07T02:13:19;1004.56;;;21.83;54.62
48810;BME280;40070;47.322;18.784;2022-08-07T02:15:23;1004.53;;;21.83;54.54
48810;BME280;40070;47.322;18.784;2022-08-07T02:17:26;1004.51;;;21.72;54.88
48810;BME280;40070;47.322;18.784;2022-08-07T02:19:28;1004.55;;;21.50;55.50
48810;BME280;40070;47.322;18.784;2022-08-07T02:21:31;1004.53;;;21.62;55.22
48810;BME280;40070;47.322;18.784;2022-08-07T02:23:35;1004.63;;;21.46;55.59
48810;BME280;40070;47.322;18.784;2022-08-07T02:25:39;1004.59;;;21.53;55.38
48810;BME280;40070;47.322;18.784;2022-08-07T02:27:43;1004.62;;;21.52;55.34
48810;BME280;40070;47.322;18.784;2022-08-07T02:29:47;1004.60;;;21.47;55.61
48810;BME280;40070;47.322;18.784;2022-08-07T02:31:50;1004.62;;;21.35;55.88
48810;BME280;40070;47.322;18.784;2022-08-07T02:33:53;1004.70;;;21.43;55.65
48810;BME280;40070;47.322;18.784;2022-08-07T02:35:57;1004.71;;;21.16;56.43
48810;BME280;40070;47.322;18.784;2022-08-07T02:38:00;1004.68;;;21.21;56.23
48810;BME280;40070;47.322;18.784;2022-08-07T02:40:04;1004.65;;;21.29;56.01
48810;BME280;40070;47.322;18.784;2022-08-07T02:42:07;1004.66;;;21.36;55.81
48810;BME280;40070;47.322;18.784;2022-08-07T02:44:11;1004.63;;;21.54;55.27
48810;BME280;40070;47.322;18.784;2022-08-07T02:46:15;1004.67;;;21.49;55.31
48810;BME280;40070;47.322;18.784;2022-08-07T02:48:19;1004.66;;;21.61;54.96
48810;BME280;40070;47.322;18.784;2022-08-07T02:50:22;1004.67;;;21.41;55.58
48810;BME280;40070;47.322;18.784;2022-08-07T02:52:37;1004.70;;;21.36;55.65
48810;BME280;40070;47.322;18.784;2022-08-07T02:54:40;1004.69;;;21.45;55.43
48810;BME280;40070;47.322;18.784;2022-08-07T02:56:43;1004.68;;;21.47;55.35
48810;BME280;40070;47.322;18.784;2022-08-07T02:58:48;1004.67;;;21.47;55.27
48810;BME280;40070;47.322;18.784;2022-08-07T03:00:51;1004.68;;;21.55;55.02
48810;BME280;40070;47.322;18.784;2022-08-07T03:02:55;1004.67;;;21.64;54.68
48810;BME280;40070;47.322;18.784;2022-08-07T03:04:59;1004.72;;;21.66;54.71
48810;BME280;40070;47.322;18.784;2022-08-07T03:07:02;1004.77;;;21.64;54.80
48810;BME280;40070;47.322;18.784;2022-08-07T03:09:05;1004.74;;;21.40;55.35
48810;BME280;40070;47.322;18.784;2022-08-07T03:11:08;1004.73;;;21.42;55.45
48810;BME280;40070;47.322;18.784;2022-08-07T03:13:11;1004.71;;;21.41;55.38
48810;BME280;40070;47.322;18.784;2022-08-07T03:15:14;1004.67;;;21.35;55.49
48810;BME280;40070;47.322;18.784;2022-08-07T03:17:17;1004.63;;;21.44;55.28
48810;BME280;40070;47.322;18.784;2022-08-07T03:19:20;1004.62;;;21.44;55.26
48810;BME280;40070;47.322;18.784;2022-08-07T03:21:23;1004.62;;;21.55;54.98
48810;BME280;40070;47.322;18.784;2022-08-07T03:23:26;1004.72;;;21.64;54.69
48810;BME280;40070;47.322;18.784;2022-08-07T03:25:30;1004.64;;;21.71;54.50
48810;BME280;40070;47.322;18.784;2022-08-07T03:27:34;1004.69;;;21.81;54.27
48810;BME280;40070;47.322;18.784;2022-08-07T03:29:36;1004.69;;;21.53;54.95
48810;BME280;40070;47.322;18.784;2022-08-07T03:31:41;1004.72;;;21.64;54.67
48810;BME280;40070;47.322;18.784;2022-08-07T03:33:45;1004.77;;;21.77;54.43
48810;BME280;40070;47.322;18.784;2022-08-07T03:35:48;1004.79;;;21.63;54.80
48810;BME280;40070;47.322;18.784;2022-08-07T03:38:01;1004.80;;;21.79;54.35
48810;BME280;40070;47.322;18.784;2022-08-07T03:40:04;1004.82;;;21.82;54.26
48810;BME280;40070;47.322;18.784;2022-08-07T03:42:07;1004.86;;;21.88;54.17
48810;BME280;40070;47.322;18.784;2022-08-07T03:44:17;1004.90;;;21.79;54.47
48810;BME280;40070;47.322;18.784;2022-08-07T03:46:20;1004.86;;;21.68;54.69
48810;BME280;40070;47.322;18.784;2022-08-07T03:48:32;1004.85;;;21.79;54.61
48810;BME280;40070;47.322;18.784;2022-08-07T03:50:35;1004.88;;;21.58;54.97
48810;BME280;40070;47.322;18.784;2022-08-07T03:52:38;1004.87;;;21.77;54.50
48810;BME280;40070;47.322;18.784;2022-08-07T03:54:41;1004.93;;;21.88;54.20
48810;BME280;40070;47.322;18.784;2022-08-07T03:56:43;1004.96;;;21.86;54.34
48810;BME280;40070;47.322;18.784;2022-08-07T03:58:47;1005.04;;;22.05;53.79
48810;BME280;40070;47.322;18.784;2022-08-07T04:00:57;1005.03;;;22.00;53.74
48810;BME280;40070;47.322;18.784;2022-08-07T04:03:00;1005.04;;;22.17;53.41
48810;BME280;40070;47.322;18.784;2022-08-07T04:05:03;1005.08;;;22.39;52.58
48810;BME280;40070;47.322;18.784;2022-08-07T04:07:05;1005.12;;;22.05;53.30
48810;BME280;40070;47.322;18.784;2022-08-07T04:09:08;1005.13;;;22.04;53.40
48810;BME280;40070;47.322;18.784;2022-08-07T04:11:11;1005.12;;;21.87;53.79
48810;BME280;40070;47.322;18.784;2022-08-07T04:13:13;1005.07;;;21.94;53.70
48810;BME280;40070;47.322;18.784;2022-08-07T04:15:16;1005.06;;;21.68;54.40
48810;BME280;40070;47.322;18.784;2022-08-07T04:17:20;1005.10;;;21.60;54.70
48810;BME280;40070;47.322;18.784;2022-08-07T04:19:22;1005.06;;;21.64;54.75
48810;BME280;40070;47.322;18.784;2022-08-07T04:21:25;1005.09;;;21.64;54.87
48810;BME280;40070;47.322;18.784;2022-08-07T04:23:27;1005.12;;;21.39;55.61
48810;BME280;40070;47.322;18.784;2022-08-07T04:25:30;1005.11;;;21.65;54.98
48810;BME280;40070;47.322;18.784;2022-08-07T04:27:33;1005.10;;;21.61;55.14
48810;BME280;40070;47.322;18.784;2022-08-07T04:29:35;1005.13;;;21.82;54.81
48810;BME280;40070;47.322;18.784;2022-08-07T04:31:38;1005.15;;;21.95;54.73
48810;BME280;40070;47.322;18.784;2022-08-07T04:33:41;1005.16;;;21.57;55.61
48810;BME280;40070;47.322;18.784;2022-08-07T04:35:44;1005.18;;;21.39;55.88
48810;BME280;40070;47.322;18.784;2022-08-07T04:37:46;1005.16;;;21.45;55.85
48810;BME280;40070;47.322;18.784;2022-08-07T04:39:49;1005.23;;;21.39;56.05
48810;BME280;40070;47.322;18.784;2022-08-07T04:41:51;1005.23;;;21.39;56.05
48810;BME280;40070;47.322;18.784;2022-08-07T04:43:54;1005.23;;;21.32;56.37
48810;BME280;40070;47.322;18.784;2022-08-07T04:46:06;1005.27;;;21.44;56.08
48810;BME280;40070;47.322;18.784;2022-08-07T04:48:11;1005.24;;;21.71;55.86
48810;BME280;40070;47.322;18.784;2022-08-07T04:52:52;1005.28;;;21.50;57.61
48810;BME280;40070;47.322;18.784;2022-08-07T04:55:02;1005.34;;;21.46;58.02
48810;BME280;40070;47.322;18.784;2022-08-07T04:59:32;1005.33;;;21.30;59.13
48810;BME280;40070;47.322;18.784;2022-08-07T05:01:50;1005.35;;;21.33;58.84
48810;BME280;40070;47.322;18.784;2022-08-07T05:04:01;1005.40;;;21.20;59.32
48810;BME280;40070;47.322;18.784;2022-08-07T05:06:12;1005.38;;;21.13;60.07
48810;BME280;40070;47.322;18.784;2022-08-07T05:08:22;1005.43;;;21.10;60.01
48810;BME280;40070;47.322;18.784;2022-08-07T05:10:40;1005.47;;;20.99;60.97
48810;BME280;40070;47.322;18.784;2022-08-07T05:12:49;1005.51;;;21.03;60.94
48810;BME280;40070;47.322;18.784;2022-08-07T05:14:55;1005.54;;;21.25;60.39
48810;BME280;40070;47.322;18.784;2022-08-07T05:17:02;1005.52;;;21.46;59.68
48810;BME280;40070;47.322;18.784;2022-08-07T05:19:12;1005.56;;;21.47;59.74
48810;BME280;40070;47.322;18.784;2022-08-07T05:21:16;1005.57;;;21.64;59.51
48810;BME280;40070;47.322;18.784;2022-08-07T05:23:21;1005.55;;;21.60;59.72
48810;BME280;40070;47.322;18.784;2022-08-07T05:25:26;1005.54;;;21.58;60.02
48810;BME280;40070;47.322;18.784;2022-08-07T05:27:29;1005.52;;;21.44;61.37
48810;BME280;40070;47.322;18.784;2022-08-07T05:29:33;1005.55;;;21.46;61.56
48810;BME280;40070;47.322;18.784;2022-08-07T05:31:37;1005.61;;;21.50;61.90
48810;BME280;40070;47.322;18.784;2022-08-07T05:33:40;1005.60;;;21.56;61.82
48810;BME280;40070;47.322;18.784;2022-08-07T05:35:44;1005.60;;;21.51;61.75
48810;BME280;40070;47.322;18.784;2022-08-07T05:37:46;1005.61;;;21.63;61.58
48810;BME280;40070;47.322;18.784;2022-08-07T05:39:49;1005.62;;;21.49;61.73
48810;BME280;40070;47.322;18.784;2022-08-07T05:41:53;1005.67;;;21.48;61.78
48810;BME280;40070;47.322;18.784;2022-08-07T05:43:55;1005.65;;;21.62;60.93
48810;BME280;40070;47.322;18.784;2022-08-07T05:45:58;1005.61;;;21.54;61.17
48810;BME280;40070;47.322;18.784;2022-08-07T05:48:09;1005.64;;;21.56;61.77
48810;BME280;40070;47.322;18.784;2022-08-07T05:50:12;1005.63;;;21.62;61.48
48810;BME280;40070;47.322;18.784;2022-08-07T05:52:16;1005.67;;;21.58;60.57
48810;BME280;40070;47.322;18.784;2022-08-07T05:54:18;1005.65;;;21.68;60.55
48810;BME280;40070;47.322;18.784;2022-08-07T05:56:21;1005.59;;;21.91;59.42
48810;BME280;40070;47.322;18.784;2022-08-07T05:58:24;1005.64;;;21.79;59.84
48810;BME280;40070;47.322;18.784;2022-08-07T06:00:30;1005.66;;;21.97;58.99
48810;BME280;40070;47.322;18.784;2022-08-07T06:02:35;1005.66;;;22.13;59.01
48810;BME280;40070;47.322;18.784;2022-08-07T06:04:38;1005.66;;;22.11;58.57
48810;BME280;40070;47.322;18.784;2022-08-07T06:06:43;1005.65;;;22.13;58.09
48810;BME280;40070;47.322;18.784;2022-08-07T06:08:45;1005.69;;;22.26;58.01
48810;BME280;40070;47.322;18.784;2022-08-07T06:10:48;1005.76;;;22.27;57.80
48810;BME280;40070;47.322;18.784;2022-08-07T06:12:51;1005.76;;;22.28;57.61
48810;BME280;40070;47.322;18.784;2022-08-07T06:14:53;1005.76;;;22.48;57.13
48810;BME280;40070;47.322;18.784;2022-08-07T06:16:56;1005.80;;;22.64;56.64
48810;BME280;40070;47.322;18.784;2022-08-07T06:19:00;1005.75;;;22.52;56.76
48810;BME280;40070;47.322;18.784;2022-08-07T06:21:03;1005.77;;;22.69;56.27
48810;BME280;40070;47.322;18.784;2022-08-07T06:23:07;1005.81;;;22.52;56.76
48810;BME280;40070;47.322;18.784;2022-08-07T06:25:09;1005.78;;;22.64;56.92
48810;BME280;40070;47.322;18.784;2022-08-07T06:27:21;1005.81;;;22.66;56.50
48810;BME280;40070;47.322;18.784;2022-08-07T06:29:26;1005.80;;;22.75;56.30
48810;BME280;40070;47.322;18.784;2022-08-07T06:31:29;1005.83;;;22.71;56.06
48810;BME280;40070;47.322;18.784;2022-08-07T06:33:32;1005.83;;;22.73;56.02
48810;BME280;40070;47.322;18.784;2022-08-07T06:35:35;1005.84;;;22.92;55.88
48810;BME280;40070;47.322;18.784;2022-08-07T06:37:37;1005.88;;;22.48;57.87
48810;BME280;40070;47.322;18.784;2022-08-07T06:39:40;1005.90;;;22.63;58.21
48810;BME280;40070;47.322;18.784;2022-08-07T06:41:44;1005.89;;;22.43;59.39
48810;BME280;40070;47.322;18.784;2022-08-07T06:43:47;1005.91;;;22.16;60.84
48810;BME280;40070;47.322;18.784;2022-08-07T06:45:50;1005.98;;;22.06;60.63
48810;BME280;40070;47.322;18.784;2022-08-07T06:47:53;1005.96;;;22.19;60.48
48810;BME280;40070;47.322;18.784;2022-08-07T06:49:55;1005.94;;;22.18;60.26
48810;BME280;40070;47.322;18.784;2022-08-07T06:51:58;1005.94;;;22.12;60.75
48810;BME280;40070;47.322;18.784;2022-08-07T06:54:02;1005.95;;;22.29;60.29
48810;BME280;40070;47.322;18.784;2022-08-07T06:56:05;1005.93;;;22.03;60.73
48810;BME280;40070;47.322;18.784;2022-08-07T06:58:09;1005.91;;;22.11;60.46
48810;BME280;40070;47.322;18.784;2022-08-07T07:00:12;1005.87;;;22.24;60.03
48810;BME280;40070;47.322;18.784;2022-08-07T07:02:19;1005.89;;;22.34;59.66
48810;BME280;40070;47.322;18.784;2022-08-07T07:04:22;1005.91;;;22.46;59.40
48810;BME280;40070;47.322;18.784;2022-08-07T07:06:24;1005.92;;;22.50;59.25
48810;BME280;40070;47.322;18.784;2022-08-07T07:08:27;1005.90;;;22.71;58.36
48810;BME280;40070;47.322;18.784;2022-08-07T07:10:33;1005.91;;;22.57;58.46
48810;BME280;40070;47.322;18.784;2022-08-07T07:12:37;1005.88;;;22.59;58.28
48810;BME280;40070;47.322;18.784;2022-08-07T07:15:07;1005.87;;;22.81;58.07
48810;BME280;40070;47.322;18.784;2022-08-07T07:17:12;1005.85;;;22.98;57.79
48810;BME280;40070;47.322;18.784;2022-08-07T07:19:38;1005.84;;;23.04;57.55
48810;BME280;40070;47.322;18.784;2022-08-07T07:21:31;1005.77;;;23.15;57.13
48810;BME280;40070;47.322;18.784;2022-08-07T07:23:36;1005.78;;;23.27;57.33
48810;BME280;40070;47.322;18.784;2022-08-07T07:25:39;1005.74;;;23.44;56.64
48810;BME280;40070;47.322;18.784;2022-08-07T07:27:47;1005.75;;;23.68;55.95
48810;BME280;40070;47.322;18.784;2022-08-07T07:29:51;1005.74;;;23.85;55.49
48810;BME280;40070;47.322;18.784;2022-08-07T07:31:55;1005.74;;;23.91;54.76
48810;BME280;40070;47.322;18.784;2022-08-07T07:33:58;1005.75;;;23.96;54.50
48810;BME280;40070;47.322;18.784;2022-08-07T07:36:02;1005.76;;;24.15;54.05
48810;BME280;40070;47.322;18.784;2022-08-07T07:38:05;1005.79;;;24.29;53.81
48810;BME280;40070;47.322;18.784;2022-08-07T07:40:16;1005.80;;;24.23;53.77
48810;BME280;40070;47.322;18.784;2022-08-07T07:42:19;1005.83;;;24.05;53.26
48810;BME280;40070;47.322;18.784;2022-08-07T07:44:23;1005.83;;;24.20;53.10
48810;BME280;40070;47.322;18.784;2022-08-07T07:46:29;1005.85;;;24.45;52.52
48810;BME280;40070;47.322;18.784;2022-08-07T07:48:32;1005.87;;;24.33;52.22
48810;BME280;40070;47.322;18.784;2022-08-07T07:50:35;1005.90;;;24.41;51.54
48810;BME280;40070;47.322;18.784;2022-08-07T07:52:40;1005.88;;;24.54;50.95
48810;BME280;40070;47.322;18.784;2022-08-07T07:54:42;1005.90;;;24.62;50.64
48810;BME280;40070;47.322;18.784;2022-08-07T07:56:47;1005.89;;;24.74;50.57
48810;BME280;40070;47.322;18.784;2022-08-07T07:58:50;1005.97;;;24.85;49.52
48810;BME280;40070;47.322;18.784;2022-08-07T08:00:54;1006.00;;;24.87;49.52
48810;BME280;40070;47.322;18.784;2022-08-07T08:03:30;1005.98;;;25.09;48.81
48810;BME280;40070;47.322;18.784;2022-08-07T08:05:17;1006.00;;;25.16;47.49
48810;BME280;40070;47.322;18.784;2022-08-07T08:07:21;1006.02;;;25.09;47.65
48810;BME280;40070;47.322;18.784;2022-08-07T08:09:24;1006.02;;;25.24;47.54
48810;BME280;40070;47.322;18.784;2022-08-07T08:11:28;1006.01;;;25.27;47.16
48810;BME280;40070;47.322;18.784;2022-08-07T08:13:31;1006.02;;;25.18;47.24
48810;BME280;40070;47.322;18.784;2022-08-07T08:15:36;1005.99;;;25.11;47.32
48810;BME280;40070;47.322;18.784;2022-08-07T08:17:40;1005.98;;;25.10;47.19
48810;BME280;40070;47.322;18.784;2022-08-07T08:19:43;1005.99;;;25.27;46.58
48810;BME280;40070;47.322;18.784;2022-08-07T08:21:47;1005.99;;;25.36;46.36
48810;BME280;40070;47.322;18.784;2022-08-07T08:23:50;1005.96;;;25.33;46.51
48810;BME280;40070;47.322;18.784;2022-08-07T08:25:52;1005.96;;;25.25;46.51
48810;BME280;40070;47.322;18.784;2022-08-07T08:27:56;1005.97;;;25.39;46.35
48810;BME280;40070;47.322;18.784;2022-08-07T08:30:05;1005.93;;;25.59;45.82
48810;BME280;40070;47.322;18.784;2022-08-07T08:32:09;1005.91;;;25.56;45.65
48810;BME280;40070;47.322;18.784;2022-08-07T08:34:12;1005.87;;;25.47;45.94
48810;BME280;40070;47.322;18.784;2022-08-07T08:36:16;1005.85;;;25.54;46.02
48810;BME280;40070;47.322;18.784;2022-08-07T08:38:42;1005.84;;;25.70;45.39
48810;BME280;40070;47.322;18.784;2022-08-07T08:40:36;1005.86;;;25.87;45.11
48810;BME280;40070;47.322;18.784;2022-08-07T08:47:16;1005.86;;;25.96;44.87
48810;BME280;40070;47.322;18.784;2022-08-07T08:54:13;1005.79;;;26.98;42.90
48810;BME280;40070;47.322;18.784;2022-08-07T08:56:23;1005.78;;;27.07;42.78
48810;BME280;40070;47.322;18.784;2022-08-07T08:58:28;1005.75;;;27.21;42.20
48810;BME280;40070;47.322;18.784;2022-08-07T09:00:39;1005.78;;;26.97;42.49
48810;BME280;40070;47.322;18.784;2022-08-07T09:02:55;1005.70;;;27.28;42.11
48810;BME280;40070;47.322;18.784;2022-08-07T09:07:27;1005.70;;;27.52;41.69
48810;BME280;40070;47.322;18.784;2022-08-07T09:12:04;1005.73;;;27.95;40.98
48810;BME280;40070;47.322;18.784;2022-08-07T09:14:19;1005.69;;;27.75;41.08
48810;BME280;40070;47.322;18.784;2022-08-07T09:16:33;1005.71;;;27.71;41.61
48810;BME280;40070;47.322;18.784;2022-08-07T09:21:10;1005.69;;;27.99;40.54
48810;BME280;40070;47.322;18.784;2022-08-07T09:25:38;1005.65;;;28.08;40.56
48810;BME280;40070;47.322;18.784;2022-08-07T09:27:44;1005.61;;;28.21;40.69
48810;BME280;40070;47.322;18.784;2022-08-07T09:44:18;1005.54;;;29.61;37.66
48810;BME280;40070;47.322;18.784;2022-08-07T09:48:57;1005.56;;;29.51;37.82
48810;BME280;40070;47.322;18.784;2022-08-07T09:52:04;1005.48;;;29.46;37.53
48810;BME280;40070;47.322;18.784;2022-08-07T09:53:26;1005.44;;;29.39;37.93
48810;BME280;40070;47.322;18.784;2022-08-07T09:58:08;1005.43;;;29.50;37.92
48810;BME280;40070;47.322;18.784;2022-08-07T10:00:15;1005.38;;;29.53;37.70
48810;BME280;40070;47.322;18.784;2022-08-07T10:02:25;1005.33;;;29.55;37.92
48810;BME280;40070;47.322;18.784;2022-08-07T10:05:04;1005.33;;;29.47;38.07
48810;BME280;40070;47.322;18.784;2022-08-07T10:10:02;1005.29;;;29.52;37.74
48810;BME280;40070;47.322;18.784;2022-08-07T10:16:52;1005.24;;;29.62;37.98
48810;BME280;40070;47.322;18.784;2022-08-07T10:21:33;1005.24;;;30.18;36.44
48810;BME280;40070;47.322;18.784;2022-08-07T10:30:48;1005.03;;;30.97;35.29
48810;BME280;40070;47.322;18.784;2022-08-07T10:33:06;1005.09;;;30.92;34.89
48810;BME280;40070;47.322;18.784;2022-08-07T10:37:45;1005.07;;;31.04;35.11
48810;BME280;40070;47.322;18.784;2022-08-07T10:42:55;1005.06;;;30.82;35.25
48810;BME280;40070;47.322;18.784;2022-08-07T10:44:45;1004.98;;;31.10;34.50
48810;BME280;40070;47.322;18.784;2022-08-07T10:46:53;1004.94;;;31.13;34.31
48810;BME280;40070;47.322;18.784;2022-08-07T10:49:21;1004.92;;;30.18;35.75
48810;BME280;40070;47.322;18.784;2022-08-07T10:51:21;1004.91;;;30.76;35.11
48810;BME280;40070;47.322;18.784;2022-08-07T10:53:42;1004.92;;;30.62;35.48
48810;BME280;40070;47.322;18.784;2022-08-07T10:56:03;1004.89;;;30.75;35.30
48810;BME280;40070;47.322;18.784;2022-08-07T11:00:35;1004.86;;;31.18;34.51
48810;BME280;40070;47.322;18.784;2022-08-07T11:05:19;1004.79;;;31.29;34.40
48810;BME280;40070;47.322;18.784;2022-08-07T11:07:37;1004.71;;;31.27;34.01
48810;BME280;40070;47.322;18.784;2022-08-07T11:09:43;1004.78;;;31.12;34.65
48810;BME280;40070;47.322;18.784;2022-08-07T11:12:00;1004.73;;;31.21;34.39
48810;BME280;40070;47.322;18.784;2022-08-07T11:14:09;1004.72;;;31.52;33.61
48810;BME280;40070;47.322;18.784;2022-08-07T11:17:16;1004.72;;;31.36;34.00
48810;BME280;40070;47.322;18.784;2022-08-07T11:18:41;1004.65;;;31.43;33.95
48810;BME280;40070;47.322;18.784;2022-08-07T11:20:48;1004.63;;;31.59;33.46
48810;BME280;40070;47.322;18.784;2022-08-07T11:25:19;1004.57;;;31.38;33.98
48810;BME280;40070;47.322;18.784;2022-08-07T11:29:53;1004.57;;;31.42;34.29
48810;BME280;40070;47.322;18.784;2022-08-07T11:32:11;1004.58;;;31.57;33.96
48810;BME280;40070;47.322;18.784;2022-08-07T11:34:38;1004.56;;;31.74;33.51
48810;BME280;40070;47.322;18.784;2022-08-07T11:36:59;1004.49;;;32.30;32.53
48810;BME280;40070;47.322;18.784;2022-08-07T11:41:31;1004.43;;;32.28;32.31
48810;BME280;40070;47.322;18.784;2022-08-07T11:43:51;1004.44;;;32.80;31.85
48810;BME280;40070;47.322;18.784;2022-08-07T11:48:33;1004.36;;;33.11;30.90
48810;BME280;40070;47.322;18.784;2022-08-07T11:50:35;1004.32;;;33.12;31.04
48810;BME280;40070;47.322;18.784;2022-08-07T11:52:41;1004.35;;;33.08;31.27
48810;BME280;40070;47.322;18.784;2022-08-07T12:05:12;1004.28;;;32.24;32.23
48810;BME280;40070;47.322;18.784;2022-08-07T12:09:09;1004.18;;;31.95;32.59
48810;BME280;40070;47.322;18.784;2022-08-07T12:11:21;1004.17;;;31.79;33.12
48810;BME280;40070;47.322;18.784;2022-08-07T12:13:30;1004.11;;;31.91;33.04
48810;BME280;40070;47.322;18.784;2022-08-07T12:15:40;1004.19;;;31.87;33.28
48810;BME280;40070;47.322;18.784;2022-08-07T12:17:47;1004.11;;;31.86;32.95
48810;BME280;40070;47.322;18.784;2022-08-07T12:19:58;1004.11;;;32.09;32.49
48810;BME280;40070;47.322;18.784;2022-08-07T12:22:07;1004.06;;;32.22;32.28
48810;BME280;40070;47.322;18.784;2022-08-07T12:24:21;1003.98;;;32.33;32.38
48810;BME280;40070;47.322;18.784;2022-08-07T12:31:12;1003.88;;;33.16;31.41
48810;BME280;40070;47.322;18.784;2022-08-07T12:33:18;1003.88;;;33.33;30.80
48810;BME280;40070;47.322;18.784;2022-08-07T12:35:23;1003.86;;;33.27;30.87
48810;BME280;40070;47.322;18.784;2022-08-07T12:37:26;1003.88;;;33.25;31.03
48810;BME280;40070;47.322;18.784;2022-08-07T12:39:31;1003.81;;;32.99;31.01
48810;BME280;40070;47.322;18.784;2022-08-07T12:41:36;1003.81;;;33.20;30.86
48810;BME280;40070;47.322;18.784;2022-08-07T12:43:39;1003.84;;;33.28;30.59